sensor_id;sensor_type;location;lat;lon;timestamp;temperature;humidity
3312;DHT22;1668;49.648;8.570;2023-06-14T00:00:46;21.90;99.90
3312;DHT22;1668;49.648;8.570;2023-06-14T00:03:14;21.80;99.90
3312;DHT22;1668;49.648;8.570;2023-06-14T00:05:43;21.80;99.90
3312;DHT22;1668;49.648;8.570;2023-06-14T00:08:13;21.80;99.90
3312;DHT22;1668;49.648;8.570;2023-06-14T00:10:40;21.70;99.90
3312;DHT22;1668;49.648;8.570;2023-06-14T00:13:09;21.70;99.90
3312;DHT22;1668;49.648;8.570;2023-06-14T00:15:37;21.60;99.90
3312;DHT22;1668;49.648;8.570;2023-06-14T00:18:04;21.60;99.90
3312;DHT22;1668;49.648;8.570;2023-06-14T00:20:32;21.50;99.90
3312;DHT22;1668;49.648;8.570;2023-06-14T00:22:59;21.50;99.90
3312;DHT22;1668;49.648;8.570;2023-06-14T00:25:27;21.50;99.90
3312;DHT22;1668;49.648;8.570;2023-06-14T00:27:54;21.50;99.90
3312;DHT22;1668;49.648;8.570;2023-06-14T00:30:23;21.50;99.90
3312;DHT22;1668;49.648;8.570;2023-06-14T00:32:50;21.30;99.90
3312;DHT22;1668;49.648;8.570;2023-06-14T00:35:17;21.20;99.90
3312;DHT22;1668;49.648;8.570;2023-06-14T00:37:44;21.20;99.90
3312;DHT22;1668;49.648;8.570;2023-06-14T00:40:11;21.20;99.90
3312;DHT22;1668;49.648;8.570;2023-06-14T00:42:38;21.10;99.90
3312;DHT22;1668;49.648;8.570;2023-06-14T00:45:06;21.10;99.90
3312;DHT22;1668;49.648;8.570;2023-06-14T00:47:35;21.00;99.90
3312;DHT22;1668;49.648;8.570;2023-06-14T00:50:06;20.90;99.90
3312;DHT22;1668;49.648;8.570;2023-06-14T00:52:34;20.90;99.90
3312;DHT22;1668;49.648;8.570;2023-06-14T00:55:02;20.90;99.90
3312;DHT22;1668;49.648;8.570;2023-06-14T00:57:29;21.00;99.90
3312;DHT22;1668;49.648;8.570;2023-06-14T00:59:56;20.90;99.90
3312;DHT22;1668;49.648;8.570;2023-06-14T01:02:23;20.90;99.90
3312;DHT22;1668;49.648;8.570;2023-06-14T01:04:53;20.90;99.90
3312;DHT22;1668;49.648;8.570;2023-06-14T01:07:28;20.90;99.90
3312;DHT22;1668;49.648;8.570;2023-06-14T01:10:09;20.90;99.90
3312;DHT22;1668;49.648;8.570;2023-06-14T01:12:50;20.90;99.90
3312;DHT22;1668;49.648;8.570;2023-06-14T01:15:21;20.90;99.90
3312;DHT22;1668;49.648;8.570;2023-06-14T01:17:49;20.90;99.90
3312;DHT22;1668;49.648;8.570;2023-06-14T01:20:22;20.90;99.90
3312;DHT22;1668;49.648;8.570;2023-06-14T01:22:53;20.90;99.90
3312;DHT22;1668;49.648;8.570;2023-06-14T01:25:20;20.90;99.90
3312;DHT22;1668;49.648;8.570;2023-06-14T01:27:49;20.90;99.90
3312;DHT22;1668;49.648;8.570;2023-06-14T01:30:17;20.90;99.90
3312;DHT22;1668;49.648;8.570;2023-06-14T01:32:45;20.90;99.90
3312;DHT22;1668;49.648;8.570;2023-06-14T01:35:12;20.80;99.90
3312;DHT22;1668;49.648;8.570;2023-06-14T01:37:39;20.80;99.90
3312;DHT22;1668;49.648;8.570;2023-06-14T01:40:10;20.70;99.90
3312;DHT22;1668;49.648;8.570;2023-06-14T01:42:38;20.80;99.90
3312;DHT22;1668;49.648;8.570;2023-06-14T01:45:06;20.80;99.90
3312;DHT22;1668;49.648;8.570;2023-06-14T01:47:34;20.70;99.90
3312;DHT22;1668;49.648;8.570;2023-06-14T01:50:02;20.70;99.90
3312;DHT22;1668;49.648;8.570;2023-06-14T01:52:29;20.70;99.90
3312;DHT22;1668;49.648;8.570;2023-06-14T01:54:56;20.70;99.90
3312;DHT22;1668;49.648;8.570;2023-06-14T01:57:25;20.60;99.90
3312;DHT22;1668;49.648;8.570;2023-06-14T01:59:53;20.50;99.90
3312;DHT22;1668;49.648;8.570;2023-06-14T02:02:20;20.50;99.90
3312;DHT22;1668;49.648;8.570;2023-06-14T02:04:47;20.40;99.90
3312;DHT22;1668;49.648;8.570;2023-06-14T02:07:14;20.40;99.90
3312;DHT22;1668;49.648;8.570;2023-06-14T02:09:41;20.40;99.90
3312;DHT22;1668;49.648;8.570;2023-06-14T02:12:09;20.40;99.90
3312;DHT22;1668;49.648;8.570;2023-06-14T02:14:38;20.30;99.90
3312;DHT22;1668;49.648;8.570;2023-06-14T02:17:05;20.30;99.90
3312;DHT22;1668;49.648;8.570;2023-06-14T02:19:33;20.40;99.90
3312;DHT22;1668;49.648;8.570;2023-06-14T02:22:00;20.40;99.90
3312;DHT22;1668;49.648;8.570;2023-06-14T02:24:27;20.30;99.90
3312;DHT22;1668;49.648;8.570;2023-06-14T02:26:54;20.30;99.90
3312;DHT22;1668;49.648;8.570;2023-06-14T02:29:21;20.10;99.90
3312;DHT22;1668;49.648;8.570;2023-06-14T02:31:49;19.90;99.90
3312;DHT22;1668;49.648;8.570;2023-06-14T02:34:16;19.80;99.90
3312;DHT22;1668;49.648;8.570;2023-06-14T02:36:43;19.70;99.90
3312;DHT22;1668;49.648;8.570;2023-06-14T02:39:11;19.60;99.90
3312;DHT22;1668;49.648;8.570;2023-06-14T02:41:38;19.50;99.90
3312;DHT22;1668;49.648;8.570;2023-06-14T02:44:05;19.50;99.90
3312;DHT22;1668;49.648;8.570;2023-06-14T02:46:33;19.50;99.90
3312;DHT22;1668;49.648;8.570;2023-06-14T02:49:01;19.30;99.90
3312;DHT22;1668;49.648;8.570;2023-06-14T02:51:28;19.10;99.90
3312;DHT22;1668;49.648;8.570;2023-06-14T02:53:55;18.90;99.90
3312;DHT22;1668;49.648;8.570;2023-06-14T02:56:22;18.80;99.90
3312;DHT22;1668;49.648;8.570;2023-06-14T02:58:49;18.90;99.90
3312;DHT22;1668;49.648;8.570;2023-06-14T03:01:16;18.90;99.90
3312;DHT22;1668;49.648;8.570;2023-06-14T03:03:43;18.90;99.90
3312;DHT22;1668;49.648;8.570;2023-06-14T03:06:11;18.90;99.90
3312;DHT22;1668;49.648;8.570;2023-06-14T03:08:39;18.90;99.90
3312;DHT22;1668;49.648;8.570;2023-06-14T03:11:07;18.80;99.90
3312;DHT22;1668;49.648;8.570;2023-06-14T03:13:34;18.70;99.90
3312;DHT22;1668;49.648;8.570;2023-06-14T03:16:03;18.70;99.90
3312;DHT22;1668;49.648;8.570;2023-06-14T03:18:30;18.60;99.90
3312;DHT22;1668;49.648;8.570;2023-06-14T03:21:01;18.60;99.90
3312;DHT22;1668;49.648;8.570;2023-06-14T03:23:29;18.70;99.90
3312;DHT22;1668;49.648;8.570;2023-06-14T03:25:56;18.70;99.90
3312;DHT22;1668;49.648;8.570;2023-06-14T03:28:23;18.70;99.90
3312;DHT22;1668;49.648;8.570;2023-06-14T03:30:51;18.70;99.90
3312;DHT22;1668;49.648;8.570;2023-06-14T03:33:18;18.70;99.90
3312;DHT22;1668;49.648;8.570;2023-06-14T03:35:45;18.60;99.90
3312;DHT22;1668;49.648;8.570;2023-06-14T03:38:12;18.60;99.90
3312;DHT22;1668;49.648;8.570;2023-06-14T03:40:40;18.50;99.90
3312;DHT22;1668;49.648;8.570;2023-06-14T03:43:07;18.40;99.90
3312;DHT22;1668;49.648;8.570;2023-06-14T03:45:34;18.30;99.90
3312;DHT22;1668;49.648;8.570;2023-06-14T03:48:01;18.30;99.90
3312;DHT22;1668;49.648;8.570;2023-06-14T03:50:28;18.30;99.90
3312;DHT22;1668;49.648;8.570;2023-06-14T03:52:55;18.40;99.90
3312;DHT22;1668;49.648;8.570;2023-06-14T03:55:22;18.40;99.90
3312;DHT22;1668;49.648;8.570;2023-06-14T03:57:52;18.40;99.90
3312;DHT22;1668;49.648;8.570;2023-06-14T04:00:19;18.40;99.90
3312;DHT22;1668;49.648;8.570;2023-06-14T04:02:45;18.40;99.90
3312;DHT22;1668;49.648;8.570;2023-06-14T04:05:13;18.40;99.90
3312;DHT22;1668;49.648;8.570;2023-06-14T04:07:42;18.30;99.90
3312;DHT22;1668;49.648;8.570;2023-06-14T04:10:11;18.30;99.90
3312;DHT22;1668;49.648;8.570;2023-06-14T04:12:38;18.20;99.90
3312;DHT22;1668;49.648;8.570;2023-06-14T04:15:07;18.10;99.90
3312;DHT22;1668;49.648;8.570;2023-06-14T04:17:37;18.10;99.90
3312;DHT22;1668;49.648;8.570;2023-06-14T04:20:05;18.20;99.90
3312;DHT22;1668;49.648;8.570;2023-06-14T04:22:35;18.20;99.90
3312;DHT22;1668;49.648;8.570;2023-06-14T04:25:03;18.10;99.90
3312;DHT22;1668;49.648;8.570;2023-06-14T04:27:31;18.10;99.90
3312;DHT22;1668;49.648;8.570;2023-06-14T04:30:00;18.10;99.90
3312;DHT22;1668;49.648;8.570;2023-06-14T04:32:29;18.10;99.90
3312;DHT22;1668;49.648;8.570;2023-06-14T04:34:59;18.10;99.90
3312;DHT22;1668;49.648;8.570;2023-06-14T04:37:27;18.10;99.90
3312;DHT22;1668;49.648;8.570;2023-06-14T04:39:55;18.10;99.90
3312;DHT22;1668;49.648;8.570;2023-06-14T04:42:22;18.10;99.90
3312;DHT22;1668;49.648;8.570;2023-06-14T04:44:50;18.10;99.90
3312;DHT22;1668;49.648;8.570;2023-06-14T04:47:20;18.10;99.90
3312;DHT22;1668;49.648;8.570;2023-06-14T04:49:49;18.20;99.90
3312;DHT22;1668;49.648;8.570;2023-06-14T04:52:16;18.30;99.90
3312;DHT22;1668;49.648;8.570;2023-06-14T04:54:46;18.30;99.90
3312;DHT22;1668;49.648;8.570;2023-06-14T04:57:14;18.20;99.90
3312;DHT22;1668;49.648;8.570;2023-06-14T04:59:42;18.30;99.90
3312;DHT22;1668;49.648;8.570;2023-06-14T05:02:09;18.30;99.90
3312;DHT22;1668;49.648;8.570;2023-06-14T05:04:37;18.30;99.90
3312;DHT22;1668;49.648;8.570;2023-06-14T05:07:07;18.40;99.90
3312;DHT22;1668;49.648;8.570;2023-06-14T05:09:34;18.40;99.90
3312;DHT22;1668;49.648;8.570;2023-06-14T05:12:01;18.40;99.90
3312;DHT22;1668;49.648;8.570;2023-06-14T05:14:28;18.40;99.90
3312;DHT22;1668;49.648;8.570;2023-06-14T05:16:55;18.40;99.90
3312;DHT22;1668;49.648;8.570;2023-06-14T05:19:22;18.50;99.90
3312;DHT22;1668;49.648;8.570;2023-06-14T05:21:49;18.50;99.90
3312;DHT22;1668;49.648;8.570;2023-06-14T05:24:17;18.60;99.90
3312;DHT22;1668;49.648;8.570;2023-06-14T05:26:45;18.70;99.90
3312;DHT22;1668;49.648;8.570;2023-06-14T05:29:12;18.70;99.90
3312;DHT22;1668;49.648;8.570;2023-06-14T05:31:39;18.60;99.90
3312;DHT22;1668;49.648;8.570;2023-06-14T05:34:06;18.60;99.90
3312;DHT22;1668;49.648;8.570;2023-06-14T05:36:33;18.60;99.90
3312;DHT22;1668;49.648;8.570;2023-06-14T05:38:59;18.70;99.90
3312;DHT22;1668;49.648;8.570;2023-06-14T05:41:29;18.70;99.90
3312;DHT22;1668;49.648;8.570;2023-06-14T05:43:57;18.70;99.90
3312;DHT22;1668;49.648;8.570;2023-06-14T05:46:25;18.80;99.90
3312;DHT22;1668;49.648;8.570;2023-06-14T05:48:52;18.80;99.90
3312;DHT22;1668;49.648;8.570;2023-06-14T05:51:19;18.80;99.90
3312;DHT22;1668;49.648;8.570;2023-06-14T05:53:46;18.80;99.90
3312;DHT22;1668;49.648;8.570;2023-06-14T05:56:13;18.80;99.90
3312;DHT22;1668;49.648;8.570;2023-06-14T05:58:42;18.90;99.90
3312;DHT22;1668;49.648;8.570;2023-06-14T06:01:09;18.90;99.90
3312;DHT22;1668;49.648;8.570;2023-06-14T06:03:37;19.00;99.90
3312;DHT22;1668;49.648;8.570;2023-06-14T06:06:04;19.00;99.90
3312;DHT22;1668;49.648;8.570;2023-06-14T06:08:31;19.00;99.90
3312;DHT22;1668;49.648;8.570;2023-06-14T06:10:58;19.00;99.90
3312;DHT22;1668;49.648;8.570;2023-06-14T06:13:26;19.10;99.90
3312;DHT22;1668;49.648;8.570;2023-06-14T06:15:54;19.10;99.90
3312;DHT22;1668;49.648;8.570;2023-06-14T06:18:21;19.20;99.90
3312;DHT22;1668;49.648;8.570;2023-06-14T06:20:48;19.20;99.90
3312;DHT22;1668;49.648;8.570;2023-06-14T06:23:15;19.30;99.90
3312;DHT22;1668;49.648;8.570;2023-06-14T06:25:42;19.40;99.90
3312;DHT22;1668;49.648;8.570;2023-06-14T06:28:09;19.40;99.90
3312;DHT22;1668;49.648;8.570;2023-06-14T06:30:36;19.50;99.90
3312;DHT22;1668;49.648;8.570;2023-06-14T06:33:04;19.50;99.90
3312;DHT22;1668;49.648;8.570;2023-06-14T06:35:31;19.60;99.90
3312;DHT22;1668;49.648;8.570;2023-06-14T06:37:59;19.60;99.90
3312;DHT22;1668;49.648;8.570;2023-06-14T06:40:26;19.60;99.90
3312;DHT22;1668;49.648;8.570;2023-06-14T06:42:53;19.70;99.90
3312;DHT22;1668;49.648;8.570;2023-06-14T06:45:20;19.70;99.90
3312;DHT22;1668;49.648;8.570;2023-06-14T06:47:48;19.80;99.90
3312;DHT22;1668;49.648;8.570;2023-06-14T06:50:18;19.80;99.90
3312;DHT22;1668;49.648;8.570;2023-06-14T06:52:45;19.90;99.90
3312;DHT22;1668;49.648;8.570;2023-06-14T06:55:12;19.90;99.90
3312;DHT22;1668;49.648;8.570;2023-06-14T06:57:39;19.90;99.90
3312;DHT22;1668;49.648;8.570;2023-06-14T07:00:07;20.00;99.90
3312;DHT22;1668;49.648;8.570;2023-06-14T07:02:35;20.10;99.90
3312;DHT22;1668;49.648;8.570;2023-06-14T07:05:02;20.20;99.90
3312;DHT22;1668;49.648;8.570;2023-06-14T07:07:31;20.30;99.90
3312;DHT22;1668;49.648;8.570;2023-06-14T07:09:58;20.30;99.90
3312;DHT22;1668;49.648;8.570;2023-06-14T07:12:26;20.40;99.90
3312;DHT22;1668;49.648;8.570;2023-06-14T07:14:52;20.50;99.90
3312;DHT22;1668;49.648;8.570;2023-06-14T07:17:19;20.50;99.90
3312;DHT22;1668;49.648;8.570;2023-06-14T07:19:46;20.50;99.90
3312;DHT22;1668;49.648;8.570;2023-06-14T07:22:13;20.60;99.90
3312;DHT22;1668;49.648;8.570;2023-06-14T07:24:41;20.60;99.90
3312;DHT22;1668;49.648;8.570;2023-06-14T07:27:08;20.70;99.90
3312;DHT22;1668;49.648;8.570;2023-06-14T07:29:35;20.70;99.90
3312;DHT22;1668;49.648;8.570;2023-06-14T07:32:02;20.80;99.90
3312;DHT22;1668;49.648;8.570;2023-06-14T07:34:29;20.80;99.90
3312;DHT22;1668;49.648;8.570;2023-06-14T07:36:56;20.90;99.90
3312;DHT22;1668;49.648;8.570;2023-06-14T07:39:23;20.90;99.90
3312;DHT22;1668;49.648;8.570;2023-06-14T07:41:52;21.00;99.90
3312;DHT22;1668;49.648;8.570;2023-06-14T07:44:19;21.00;99.90
3312;DHT22;1668;49.648;8.570;2023-06-14T07:46:46;21.10;99.90
3312;DHT22;1668;49.648;8.570;2023-06-14T07:49:14;21.20;99.90
3312;DHT22;1668;49.648;8.570;2023-06-14T07:51:41;21.20;99.90
3312;DHT22;1668;49.648;8.570;2023-06-14T07:54:09;21.30;99.90
3312;DHT22;1668;49.648;8.570;2023-06-14T07:56:36;21.30;99.90
3312;DHT22;1668;49.648;8.570;2023-06-14T07:59:05;21.30;99.90
3312;DHT22;1668;49.648;8.570;2023-06-14T08:01:33;21.40;99.90
3312;DHT22;1668;49.648;8.570;2023-06-14T08:04:00;21.40;99.90
3312;DHT22;1668;49.648;8.570;2023-06-14T08:06:27;21.50;99.90
3312;DHT22;1668;49.648;8.570;2023-06-14T08:08:53;21.60;99.90
3312;DHT22;1668;49.648;8.570;2023-06-14T08:11:20;21.60;99.90
3312;DHT22;1668;49.648;8.570;2023-06-14T08:13:49;21.60;99.90
3312;DHT22;1668;49.648;8.570;2023-06-14T08:16:18;21.60;99.90
3312;DHT22;1668;49.648;8.570;2023-06-14T08:18:44;21.70;99.90
3312;DHT22;1668;49.648;8.570;2023-06-14T08:21:12;21.70;99.90
3312;DHT22;1668;49.648;8.570;2023-06-14T08:23:40;21.80;99.90
3312;DHT22;1668;49.648;8.570;2023-06-14T08:26:08;21.70;99.90
3312;DHT22;1668;49.648;8.570;2023-06-14T08:28:36;21.70;99.90
3312;DHT22;1668;49.648;8.570;2023-06-14T08:31:03;21.80;99.90
3312;DHT22;1668;49.648;8.570;2023-06-14T08:33:32;21.90;99.90
3312;DHT22;1668;49.648;8.570;2023-06-14T08:36:00;22.00;99.90
3312;DHT22;1668;49.648;8.570;2023-06-14T08:38:30;22.10;99.90
3312;DHT22;1668;49.648;8.570;2023-06-14T08:40:57;22.20;99.90
3312;DHT22;1668;49.648;8.570;2023-06-14T08:43:24;22.20;99.90
3312;DHT22;1668;49.648;8.570;2023-06-14T08:45:56;22.20;99.90
3312;DHT22;1668;49.648;8.570;2023-06-14T08:48:26;22.20;99.90
3312;DHT22;1668;49.648;8.570;2023-06-14T08:50:56;22.30;99.90
3312;DHT22;1668;49.648;8.570;2023-06-14T08:53:28;22.40;99.90
3312;DHT22;1668;49.648;8.570;2023-06-14T08:55:57;22.40;99.90
3312;DHT22;1668;49.648;8.570;2023-06-14T08:58:27;22.40;99.90
3312;DHT22;1668;49.648;8.570;2023-06-14T09:00:57;22.50;99.90
3312;DHT22;1668;49.648;8.570;2023-06-14T09:03:24;22.50;99.90
3312;DHT22;1668;49.648;8.570;2023-06-14T09:05:56;22.60;99.90
3312;DHT22;1668;49.648;8.570;2023-06-14T09:08:25;22.70;99.90
3312;DHT22;1668;49.648;8.570;2023-06-14T09:10:52;22.70;99.90
3312;DHT22;1668;49.648;8.570;2023-06-14T09:13:19;22.70;99.90
3312;DHT22;1668;49.648;8.570;2023-06-14T09:15:45;22.80;99.90
3312;DHT22;1668;49.648;8.570;2023-06-14T09:18:12;22.80;99.90
3312;DHT22;1668;49.648;8.570;2023-06-14T09:20:40;22.90;99.90
3312;DHT22;1668;49.648;8.570;2023-06-14T09:23:09;22.90;99.90
3312;DHT22;1668;49.648;8.570;2023-06-14T09:25:42;22.90;99.90
3312;DHT22;1668;49.648;8.570;2023-06-14T09:28:09;23.10;99.90
3312;DHT22;1668;49.648;8.570;2023-06-14T09:30:37;23.10;99.90
3312;DHT22;1668;49.648;8.570;2023-06-14T09:33:04;23.10;99.90
3312;DHT22;1668;49.648;8.570;2023-06-14T09:35:31;23.20;99.90
3312;DHT22;1668;49.648;8.570;2023-06-14T09:37:58;23.20;99.90
3312;DHT22;1668;49.648;8.570;2023-06-14T09:40:27;23.20;99.90
3312;DHT22;1668;49.648;8.570;2023-06-14T09:42:54;23.30;99.90
3312;DHT22;1668;49.648;8.570;2023-06-14T09:45:24;23.40;99.90
3312;DHT22;1668;49.648;8.570;2023-06-14T09:47:54;23.50;99.90
3312;DHT22;1668;49.648;8.570;2023-06-14T09:50:21;23.50;99.90
3312;DHT22;1668;49.648;8.570;2023-06-14T09:52:49;23.60;99.90
3312;DHT22;1668;49.648;8.570;2023-06-14T09:55:19;23.60;99.90
3312;DHT22;1668;49.648;8.570;2023-06-14T09:57:48;23.80;99.90
3312;DHT22;1668;49.648;8.570;2023-06-14T10:00:18;23.90;99.90
3312;DHT22;1668;49.648;8.570;2023-06-14T10:02:49;23.80;99.90
3312;DHT22;1668;49.648;8.570;2023-06-14T10:05:19;23.70;99.90
3312;DHT22;1668;49.648;8.570;2023-06-14T10:07:52;23.80;99.90
3312;DHT22;1668;49.648;8.570;2023-06-14T10:10:19;23.90;99.90
3312;DHT22;1668;49.648;8.570;2023-06-14T10:12:48;24.00;99.90
3312;DHT22;1668;49.648;8.570;2023-06-14T10:15:20;24.10;99.90
3312;DHT22;1668;49.648;8.570;2023-06-14T10:17:52;24.20;99.90
3312;DHT22;1668;49.648;8.570;2023-06-14T10:20:27;24.20;99.90
3312;DHT22;1668;49.648;8.570;2023-06-14T10:23:00;24.10;99.90
3312;DHT22;1668;49.648;8.570;2023-06-14T10:25:29;24.20;99.90
3312;DHT22;1668;49.648;8.570;2023-06-14T10:28:14;24.40;99.90
3312;DHT22;1668;49.648;8.570;2023-06-14T10:31:04;24.40;99.90
3312;DHT22;1668;49.648;8.570;2023-06-14T10:33:31;24.10;99.90
3312;DHT22;1668;49.648;8.570;2023-06-14T10:38:57;24.10;99.90
3312;DHT22;1668;49.648;8.570;2023-06-14T10:41:25;24.20;99.90
3312;DHT22;1668;49.648;8.570;2023-06-14T10:46:59;24.00;99.90
3312;DHT22;1668;49.648;8.570;2023-06-14T10:49:41;23.90;99.90
3312;DHT22;1668;49.648;8.570;2023-06-14T10:52:10;24.00;99.90
3312;DHT22;1668;49.648;8.570;2023-06-14T10:55:10;24.30;99.90
3312;DHT22;1668;49.648;8.570;2023-06-14T10:57:39;24.50;99.90
3312;DHT22;1668;49.648;8.570;2023-06-14T11:00:10;24.60;99.90
3312;DHT22;1668;49.648;8.570;2023-06-14T11:05:52;24.60;99.90
3312;DHT22;1668;49.648;8.570;2023-06-14T11:08:40;24.60;99.90
3312;DHT22;1668;49.648;8.570;2023-06-14T11:11:13;24.70;99.90
3312;DHT22;1668;49.648;8.570;2023-06-14T11:13:46;25.00;99.90
3312;DHT22;1668;49.648;8.570;2023-06-14T11:16:15;25.30;99.90
3312;DHT22;1668;49.648;8.570;2023-06-14T11:18:44;25.30;99.90
3312;DHT22;1668;49.648;8.570;2023-06-14T11:21:14;25.00;99.90
3312;DHT22;1668;49.648;8.570;2023-06-14T11:23:41;24.80;99.90
3312;DHT22;1668;49.648;8.570;2023-06-14T11:26:09;24.90;99.90
3312;DHT22;1668;49.648;8.570;2023-06-14T11:28:40;25.10;99.90
3312;DHT22;1668;49.648;8.570;2023-06-14T11:31:07;25.10;99.90
3312;DHT22;1668;49.648;8.570;2023-06-14T11:33:35;25.20;99.90
3312;DHT22;1668;49.648;8.570;2023-06-14T11:36:03;25.40;99.90
3312;DHT22;1668;49.648;8.570;2023-06-14T11:38:30;25.50;99.90
3312;DHT22;1668;49.648;8.570;2023-06-14T11:41:00;25.40;99.90
3312;DHT22;1668;49.648;8.570;2023-06-14T11:43:27;25.30;99.90
3312;DHT22;1668;49.648;8.570;2023-06-14T11:45:54;25.20;99.90
3312;DHT22;1668;49.648;8.570;2023-06-14T11:48:21;25.10;99.90
3312;DHT22;1668;49.648;8.570;2023-06-14T11:50:51;25.00;99.90
3312;DHT22;1668;49.648;8.570;2023-06-14T11:53:18;25.00;99.90
3312;DHT22;1668;49.648;8.570;2023-06-14T11:55:45;25.00;99.90
3312;DHT22;1668;49.648;8.570;2023-06-14T11:58:13;25.00;99.90
3312;DHT22;1668;49.648;8.570;2023-06-14T12:00:40;25.00;99.90
3312;DHT22;1668;49.648;8.570;2023-06-14T12:03:07;25.20;99.90
3312;DHT22;1668;49.648;8.570;2023-06-14T12:05:34;25.30;99.90
3312;DHT22;1668;49.648;8.570;2023-06-14T12:08:04;25.30;99.90
3312;DHT22;1668;49.648;8.570;2023-06-14T12:10:40;25.30;99.90
3312;DHT22;1668;49.648;8.570;2023-06-14T12:13:10;25.50;99.90
3312;DHT22;1668;49.648;8.570;2023-06-14T12:15:36;26.00;99.90
3312;DHT22;1668;49.648;8.570;2023-06-14T12:18:05;26.30;99.90
3312;DHT22;1668;49.648;8.570;2023-06-14T12:20:33;26.70;99.90
3312;DHT22;1668;49.648;8.570;2023-06-14T12:23:04;26.80;99.90
3312;DHT22;1668;49.648;8.570;2023-06-14T12:25:32;26.70;99.90
3312;DHT22;1668;49.648;8.570;2023-06-14T12:28:03;26.80;99.90
3312;DHT22;1668;49.648;8.570;2023-06-14T12:30:31;26.80;99.90
3312;DHT22;1668;49.648;8.570;2023-06-14T12:32:58;26.80;99.90
3312;DHT22;1668;49.648;8.570;2023-06-14T12:35:26;26.70;99.90
3312;DHT22;1668;49.648;8.570;2023-06-14T12:37:52;26.70;99.90
3312;DHT22;1668;49.648;8.570;2023-06-14T12:40:21;26.50;99.90
3312;DHT22;1668;49.648;8.570;2023-06-14T12:42:48;26.50;99.90
3312;DHT22;1668;49.648;8.570;2023-06-14T12:45:14;26.30;99.90
3312;DHT22;1668;49.648;8.570;2023-06-14T12:47:41;26.30;99.90
3312;DHT22;1668;49.648;8.570;2023-06-14T12:50:09;26.40;99.90
3312;DHT22;1668;49.648;8.570;2023-06-14T12:52:36;26.60;99.90
3312;DHT22;1668;49.648;8.570;2023-06-14T12:55:03;27.10;99.90
3312;DHT22;1668;49.648;8.570;2023-06-14T12:57:32;27.20;99.90
3312;DHT22;1668;49.648;8.570;2023-06-14T13:00:02;27.00;99.90
3312;DHT22;1668;49.648;8.570;2023-06-14T13:02:30;26.70;99.90
3312;DHT22;1668;49.648;8.570;2023-06-14T13:04:56;26.40;99.90
3312;DHT22;1668;49.648;8.570;2023-06-14T13:07:24;26.60;99.90
3312;DHT22;1668;49.648;8.570;2023-06-14T13:09:51;26.60;99.90
3312;DHT22;1668;49.648;8.570;2023-06-14T13:12:18;26.60;99.90
3312;DHT22;1668;49.648;8.570;2023-06-14T13:14:46;26.50;99.90
3312;DHT22;1668;49.648;8.570;2023-06-14T13:17:13;26.50;99.90
3312;DHT22;1668;49.648;8.570;2023-06-14T13:19:40;27.10;99.90
3312;DHT22;1668;49.648;8.570;2023-06-14T13:22:08;26.90;99.90
3312;DHT22;1668;49.648;8.570;2023-06-14T13:24:34;26.70;99.90
3312;DHT22;1668;49.648;8.570;2023-06-14T13:27:02;26.40;99.90
3312;DHT22;1668;49.648;8.570;2023-06-14T13:29:29;26.30;99.90
3312;DHT22;1668;49.648;8.570;2023-06-14T13:31:58;26.20;99.90
3312;DHT22;1668;49.648;8.570;2023-06-14T13:34:24;26.10;99.90
3312;DHT22;1668;49.648;8.570;2023-06-14T13:36:51;26.10;99.90
3312;DHT22;1668;49.648;8.570;2023-06-14T13:39:19;26.10;99.90
3312;DHT22;1668;49.648;8.570;2023-06-14T13:41:46;26.70;99.90
3312;DHT22;1668;49.648;8.570;2023-06-14T13:44:12;27.20;99.90
3312;DHT22;1668;49.648;8.570;2023-06-14T13:46:41;27.50;99.90
3312;DHT22;1668;49.648;8.570;2023-06-14T13:49:11;27.90;99.90
3312;DHT22;1668;49.648;8.570;2023-06-14T13:51:38;27.90;99.90
3312;DHT22;1668;49.648;8.570;2023-06-14T13:54:05;28.20;99.90
3312;DHT22;1668;49.648;8.570;2023-06-14T13:56:32;28.30;99.90
3312;DHT22;1668;49.648;8.570;2023-06-14T13:58:59;28.50;99.90
3312;DHT22;1668;49.648;8.570;2023-06-14T14:01:26;28.50;99.90
3312;DHT22;1668;49.648;8.570;2023-06-14T14:03:54;28.40;99.90
3312;DHT22;1668;49.648;8.570;2023-06-14T14:06:22;28.60;99.90
3312;DHT22;1668;49.648;8.570;2023-06-14T14:08:49;28.50;99.90
3312;DHT22;1668;49.648;8.570;2023-06-14T14:11:16;28.30;99.90
3312;DHT22;1668;49.648;8.570;2023-06-14T14:13:43;27.90;99.90
3312;DHT22;1668;49.648;8.570;2023-06-14T14:16:10;27.80;99.90
3312;DHT22;1668;49.648;8.570;2023-06-14T14:18:38;27.70;99.90
3312;DHT22;1668;49.648;8.570;2023-06-14T14:21:05;27.70;99.90
3312;DHT22;1668;49.648;8.570;2023-06-14T14:23:33;27.40;99.90
3312;DHT22;1668;49.648;8.570;2023-06-14T14:26:00;27.40;99.90
3312;DHT22;1668;49.648;8.570;2023-06-14T14:28:29;27.50;99.90
3312;DHT22;1668;49.648;8.570;2023-06-14T14:30:56;27.70;99.90
3312;DHT22;1668;49.648;8.570;2023-06-14T14:33:23;27.90;99.90
3312;DHT22;1668;49.648;8.570;2023-06-14T14:35:50;28.20;99.90
3312;DHT22;1668;49.648;8.570;2023-06-14T14:38:17;28.60;99.90
3312;DHT22;1668;49.648;8.570;2023-06-14T14:40:45;28.60;99.90
3312;DHT22;1668;49.648;8.570;2023-06-14T14:43:12;29.00;99.90
3312;DHT22;1668;49.648;8.570;2023-06-14T14:45:39;29.20;99.90
3312;DHT22;1668;49.648;8.570;2023-06-14T14:48:06;29.10;99.90
3312;DHT22;1668;49.648;8.570;2023-06-14T14:50:33;29.30;99.90
3312;DHT22;1668;49.648;8.570;2023-06-14T14:53:00;29.30;99.90
3312;DHT22;1668;49.648;8.570;2023-06-14T14:55:27;29.40;99.90
3312;DHT22;1668;49.648;8.570;2023-06-14T14:57:55;29.00;99.90
3312;DHT22;1668;49.648;8.570;2023-06-14T15:00:22;29.20;99.90
3312;DHT22;1668;49.648;8.570;2023-06-14T15:02:49;29.50;99.90
3312;DHT22;1668;49.648;8.570;2023-06-14T15:05:16;29.70;99.90
3312;DHT22;1668;49.648;8.570;2023-06-14T15:07:43;29.80;99.90
3312;DHT22;1668;49.648;8.570;2023-06-14T15:10:11;29.90;99.90
3312;DHT22;1668;49.648;8.570;2023-06-14T15:12:38;29.90;99.90
3312;DHT22;1668;49.648;8.570;2023-06-14T15:15:07;29.70;99.90
3312;DHT22;1668;49.648;8.570;2023-06-14T15:17:35;29.60;99.90
3312;DHT22;1668;49.648;8.570;2023-06-14T15:20:02;29.50;99.90
3312;DHT22;1668;49.648;8.570;2023-06-14T15:22:30;29.30;99.90
3312;DHT22;1668;49.648;8.570;2023-06-14T15:24:56;29.00;99.90
3312;DHT22;1668;49.648;8.570;2023-06-14T15:27:23;28.80;99.90
3312;DHT22;1668;49.648;8.570;2023-06-14T15:29:50;28.60;99.90
3312;DHT22;1668;49.648;8.570;2023-06-14T15:32:18;28.70;99.90
3312;DHT22;1668;49.648;8.570;2023-06-14T15:34:45;28.80;99.90
3312;DHT22;1668;49.648;8.570;2023-06-14T15:37:12;29.10;99.90
3312;DHT22;1668;49.648;8.570;2023-06-14T15:39:39;29.50;99.90
3312;DHT22;1668;49.648;8.570;2023-06-14T15:42:06;29.80;99.90
3312;DHT22;1668;49.648;8.570;2023-06-14T15:44:34;30.10;99.90
3312;DHT22;1668;49.648;8.570;2023-06-14T15:47:01;30.20;99.90
3312;DHT22;1668;49.648;8.570;2023-06-14T15:49:30;30.50;99.90
3312;DHT22;1668;49.648;8.570;2023-06-14T15:51:56;30.40;99.90
3312;DHT22;1668;49.648;8.570;2023-06-14T15:54:23;30.40;99.90
3312;DHT22;1668;49.648;8.570;2023-06-14T15:56:50;30.40;99.90
3312;DHT22;1668;49.648;8.570;2023-06-14T15:59:17;30.60;99.90
3312;DHT22;1668;49.648;8.570;2023-06-14T16:01:44;30.10;99.90
3312;DHT22;1668;49.648;8.570;2023-06-14T16:04:11;30.10;99.90
3312;DHT22;1668;49.648;8.570;2023-06-14T16:06:39;30.30;99.90
3312;DHT22;1668;49.648;8.570;2023-06-14T16:09:06;30.40;99.90
3312;DHT22;1668;49.648;8.570;2023-06-14T16:11:33;30.00;99.90
3312;DHT22;1668;49.648;8.570;2023-06-14T16:14:00;29.90;99.90
3312;DHT22;1668;49.648;8.570;2023-06-14T16:16:27;29.50;99.90